Guantánamo Bay Naval Air Station (NBW/MUGM)





Airport Information
Location: Guantanamo,
Coordinates: 19.9065 / -75.2071
Field Elevation: 56ft
Longest Runway: 8,022ft
ILS Approaches: NO
Landing Fees: $65 per flight
Jet A Price: $0.18/lbs

Current Weather
METAR: MUGM 020451Z 36006KT 7SM FEW025 SCT280 29/26 A3006 RMK AO2 SLP179 T02890261 403390267 $
TAF: TAF MUGM 0123/0223 14013KT 9999 FEW012 SCT030 QNH2995INS BECMG 0203/0205 04008KT 9999 FEW010 FEW030 QNH3001INS BECMG 0206/0208 35006KT 9999 QNH3001INS BECMG 0215/0217 14015G20KT 9999 FEW010 SCT060 QNH3001INS T26/0209Z T32/0215Z FN00243

Recent Arrivals
Date Flight Type Depart
12/22/2019 CMB7583 B752 Norfolk Naval Station (Chambers Field) (KNGU)
01/13/2019 CMB803 B752 Jacksonville Naval Air Station (KNIP)
09/25/2018 CPX803 B752 Jacksonville Naval Air Station (KNIP)
Recent Departures
Date Flight Type Arrive
12/24/2019 CMB7584 B752 Norfolk Naval Station (Chambers Field) (KNGU)
01/14/2019 CPX804 B752 Jacksonville Naval Air Station (KNIP)
09/28/2018 CPX804 B752 Jacksonville Naval Air Station (KNIP)